Time;durP1;ratioP1;P1;durP2;ratioP2;P2;SDS_P1;SDS_P2;PMS_P1;PMS_P2;Temp;Humidity;BMP_temperature;BMP_pressure;BME280_temperature;BME280_humidity;BME280_pressure;Samples;Min_cycle;Max_cycle;Signal;HPM_P1;HPM_P2
2024/02/18 00:00:15;;;;;;;;;3.50;3.50;;;;;10.25;100.00;100237.97;5988761;29;96899;-58
2024/02/18 00:03:19;;;;;;;;;3.00;3.00;;;;;10.24;100.00;100259.72;5997881;29;96944;-57
2024/02/18 00:06:23;;;;;;;;;3.00;3.00;;;;;10.16;100.00;100252.59;5989407;29;96401;-57
2024/02/18 00:09:27;;;;;;;;;3.60;3.00;;;;;10.17;100.00;100264.16;5993713;29;97770;-58
2024/02/18 00:12:30;;;;;;;;;3.00;3.00;;;;;10.11;100.00;100260.34;5979033;29;96644;-58
2024/02/18 00:15:34;;;;;;;;;2.80;2.80;;;;;10.12;100.00;100275.47;5995832;29;97187;-57
2024/02/18 00:18:39;;;;;;;;;4.00;3.00;;;;;10.13;100.00;100268.22;5995988;29;96848;-58
2024/02/18 00:21:42;;;;;;;;;2.00;2.00;;;;;10.21;100.00;100271.72;5995815;29;96539;-57
2024/02/18 00:24:45;;;;;;;;;3.50;3.00;;;;;10.28;100.00;100274.50;5997713;29;96544;-58
2024/02/18 00:27:49;;;;;;;;;4.00;4.00;;;;;10.19;100.00;100244.13;5997306;29;96427;-57
2024/02/18 00:30:53;;;;;;;;;3.00;3.00;;;;;10.17;100.00;100248.00;5997514;29;96325;-58
2024/02/18 00:33:58;;;;;;;;;4.00;4.00;;;;;10.44;100.00;100279.72;5996998;29;97013;-57
2024/02/18 00:37:01;;;;;;;;;3.40;3.00;;;;;10.45;100.00;100281.38;5997280;29;96435;-58
2024/02/18 00:40:07;;;;;;;;;3.25;3.00;;;;;10.54;100.00;100280.25;5997092;29;96643;-57
2024/02/18 00:43:11;;;;;;;;;3.00;3.00;;;;;10.66;100.00;100288.69;5997681;29;96900;-58
2024/02/18 00:46:15;;;;;;;;;4.00;4.00;;;;;10.69;100.00;100296.44;5997372;29;96494;-58
2024/02/18 00:49:40;;;;;;;;;4.00;4.00;;;;;10.70;100.00;100290.00;5996089;29;96728;-58
2024/02/18 00:52:43;;;;;;;;;4.25;4.00;;;;;10.71;100.00;100291.66;5996645;29;96865;-57
2024/02/18 00:55:46;;;;;;;;;5.00;4.20;;;;;10.72;100.00;100293.34;6003115;29;97007;-53
2024/02/18 00:58:50;;;;;;;;;5.40;4.40;;;;;10.41;100.00;100264.72;6004091;29;96360;-53
2024/02/18 01:01:53;;;;;;;;;4.00;4.00;;;;;10.65;100.00;100298.63;6005259;29;96590;-53
2024/02/18 01:04:58;;;;;;;;;4.25;4.00;;;;;10.64;100.00;100304.25;6005822;29;96398;-53
2024/02/18 01:08:02;;;;;;;;;5.00;5.00;;;;;10.65;100.00;100306.72;6005208;29;96959;-53
2024/02/18 01:11:06;;;;;;;;;6.00;5.25;;;;;10.65;100.00;100314.81;6005101;29;96923;-53
2024/02/18 01:14:09;;;;;;;;;6.40;6.00;;;;;10.68;100.00;100322.56;5988331;29;97240;-54
2024/02/18 01:17:13;;;;;;;;;4.40;4.00;;;;;10.73;100.00;100319.28;6005026;29;96429;-53
2024/02/18 01:20:19;;;;;;;;;6.00;6.00;;;;;10.65;100.00;100309.44;6008073;29;96292;-53
2024/02/18 01:23:22;;;;;;;;;5.00;5.00;;;;;10.75;100.00;100320.78;6009661;29;96393;-53
2024/02/18 01:26:25;;;;;;;;;8.00;5.00;;;;;10.75;100.00;100322.66;6009644;29;96363;-54
2024/02/18 01:29:28;;;;;;;;;5.00;5.00;;;;;10.68;100.00;100310.94;6008753;29;96572;-53
2024/02/18 01:32:32;;;;;;;;;7.00;7.00;;;;;10.74;100.00;100326.38;6009112;29;96396;-53
2024/02/18 01:35:37;;;;;;;;;6.60;5.00;;;;;10.79;100.00;100326.66;6009698;29;97298;-53
2024/02/18 01:38:40;;;;;;;;;6.00;6.00;;;;;10.81;100.00;100322.72;6008877;29;96958;-53
2024/02/18 01:41:43;;;;;;;;;6.60;6.00;;;;;10.83;100.00;100327.94;6006159;29;96402;-53
2024/02/18 01:44:47;;;;;;;;;7.00;6.00;;;;;10.82;100.00;100334.34;6009031;29;96406;-53
2024/02/18 01:47:50;;;;;;;;;6.00;5.20;;;;;10.81;100.00;100329.97;6008872;29;96377;-53
2024/02/18 01:50:55;;;;;;;;;7.00;6.00;;;;;10.81;100.00;100338.91;6008554;29;97051;-53
2024/02/18 01:53:59;;;;;;;;;6.00;5.00;;;;;10.83;100.00;100336.88;6008951;29;96394;-53
2024/02/18 01:57:05;;;;;;;;;8.00;6.00;;;;;10.84;100.00;100340.41;6008442;29;96919;-53
2024/02/18 02:00:13;;;;;;;;;6.00;5.80;;;;;10.86;100.00;100336.47;6009123;29;96503;-53
2024/02/18 02:03:16;;;;;;;;;8.40;7.40;;;;;10.79;100.00;100329.34;6043410;23;96581;-53
2024/02/18 02:06:22;;;;;;;;;7.00;7.00;;;;;10.85;100.00;100331.25;6000292;29;96624;-57
2024/02/18 02:09:26;;;;;;;;;8.00;7.00;;;;;10.89;100.00;100337.97;6000190;29;97008;-58
2024/02/18 02:12:29;;;;;;;;;8.20;8.00;;;;;10.78;100.00;100333.06;6000123;29;96941;-57
2024/02/18 02:15:33;;;;;;;;;7.40;6.40;;;;;10.77;100.00;100331.38;6022577;29;96438;-58
2024/02/18 02:18:37;;;;;;;;;8.00;6.75;;;;;10.76;100.00;100327.84;6005381;29;96410;-57
2024/02/18 02:21:41;;;;;;;;;10.00;8.00;;;;;10.74;100.00;100329.91;6022955;29;97002;-58
2024/02/18 02:24:45;;;;;;;;;8.00;8.00;;;;;10.75;100.00;100334.25;6022892;29;96722;-57
2024/02/18 02:27:57;;;;;;;;;6.80;6.60;;;;;10.75;100.00;100330.75;6018051;29;97034;-57
2024/02/18 02:31:03;;;;;;;;;7.00;6.00;;;;;10.78;100.00;100336.59;5998974;29;96928;-57
2024/02/18 02:34:07;;;;;;;;;7.00;7.00;;;;;10.80;100.00;100333.69;6020915;29;96481;-57
2024/02/18 02:37:10;;;;;;;;;9.00;7.00;;;;;10.80;100.00;100342.63;6022367;29;97634;-57
2024/02/18 02:40:14;;;;;;;;;8.00;8.00;;;;;10.78;100.00;100338.47;6021539;29;97612;-57
2024/02/18 02:43:17;;;;;;;;;7.00;6.00;;;;;10.67;100.00;100320.03;6021803;29;96388;-58
2024/02/18 02:46:21;;;;;;;;;8.00;7.00;;;;;10.78;100.00;100339.28;6022514;29;96847;-57
2024/02/18 02:49:25;;;;;;;;;9.00;7.00;;;;;10.72;100.00;100340.03;6022482;29;96356;-58
2024/02/18 02:52:28;;;;;;;;;6.60;6.60;;;;;10.74;100.00;100342.56;6021644;29;96392;-57
2024/02/18 02:55:31;;;;;;;;;8.00;7.00;;;;;10.76;100.00;100335.94;6022329;29;96435;-57
2024/02/18 02:58:35;;;;;;;;;7.20;5.00;;;;;10.78;100.00;100342.00;6020784;29;96441;-57
2024/02/18 03:01:39;;;;;;;;;8.25;6.25;;;;;10.76;100.00;100333.25;6008586;29;96914;-57
2024/02/18 03:04:43;;;;;;;;;7.00;6.00;;;;;10.76;100.00;100340.50;6021422;29;96788;-57
2024/02/18 03:07:46;;;;;;;;;7.00;7.00;;;;;10.74;100.00;100338.00;6021844;29;96503;-57
2024/02/18 03:10:50;;;;;;;;;8.50;8.00;;;;;10.79;100.00;100332.03;6022038;29;97758;-57
2024/02/18 03:13:53;;;;;;;;;7.00;6.00;;;;;10.80;100.00;100355.28;6022143;29;98257;-57
2024/02/18 03:16:58;;;;;;;;;6.40;5.00;;;;;10.72;100.00;100350.00;6021544;29;96431;-57
2024/02/18 03:20:01;;;;;;;;;8.00;7.25;;;;;10.67;100.00;100352.41;6021190;29;96941;-57
2024/02/18 03:23:04;;;;;;;;;6.40;5.80;;;;;10.67;100.00;100355.94;6020988;29;97205;-57
2024/02/18 03:26:08;;;;;;;;;6.60;6.00;;;;;10.69;100.00;100369.25;6021215;29;96307;-57
2024/02/18 03:29:11;;;;;;;;;6.50;6.00;;;;;10.64;100.00;100350.09;6021798;29;96635;-57
2024/02/18 03:32:16;;;;;;;;;7.80;6.80;;;;;10.65;100.00;100359.88;6021909;29;97124;-57
2024/02/18 03:35:27;;;;;;;;;8.00;7.00;;;;;10.65;100.00;100360.69;6021568;29;96413;-57
2024/02/18 03:38:30;;;;;;;;;7.00;7.00;;;;;10.67;100.00;100360.50;6021232;29;96464;-57
2024/02/18 03:41:33;;;;;;;;;7.20;7.00;;;;;10.70;100.00;100357.44;6021296;29;96478;-57
2024/02/18 03:44:36;;;;;;;;;6.60;6.00;;;;;10.65;100.00;100365.25;6021399;29;96352;-57
2024/02/18 03:47:41;;;;;;;;;7.00;5.00;;;;;10.60;100.00;100365.81;6021393;29;96388;-57
2024/02/18 03:50:44;;;;;;;;;5.60;5.60;;;;;10.58;100.00;100359.75;6021079;29;96405;-57
2024/02/18 03:53:48;;;;;;;;;5.00;5.00;;;;;10.57;100.00;100360.78;6021403;29;96345;-58
2024/02/18 03:56:51;;;;;;;;;7.00;6.00;;;;;10.54;100.00;100361.16;6021136;29;96424;-57
2024/02/18 03:59:54;;;;;;;;;7.00;7.00;;;;;10.53;100.00;100364.03;6020835;29;96459;-57
2024/02/18 04:02:59;;;;;;;;;6.00;6.00;;;;;10.52;100.00;100357.81;6020476;29;96717;-57
2024/02/18 04:06:02;;;;;;;;;6.75;6.25;;;;;10.55;100.00;100362.84;6021380;29;96316;-57
2024/02/18 04:09:06;;;;;;;;;6.00;5.00;;;;;10.56;100.00;100359.09;6015898;29;96626;-57
2024/02/18 04:12:09;;;;;;;;;7.00;6.40;;;;;10.60;100.00;100363.13;6020354;29;96294;-57
2024/02/18 04:15:13;;;;;;;;;5.00;4.25;;;;;10.61;100.00;100363.94;6020148;29;96345;-57
2024/02/18 04:18:17;;;;;;;;;4.20;4.20;;;;;10.64;100.00;100368.97;6020336;29;97155;-57
2024/02/18 04:21:21;;;;;;;;;5.40;5.00;;;;;10.60;100.00;100355.03;6019038;29;97017;-58
2024/02/18 04:24:25;;;;;;;;;5.50;5.50;;;;;10.62;100.00;100362.91;6020899;29;96346;-57
2024/02/18 04:27:28;;;;;;;;;6.00;5.00;;;;;10.61;100.00;100353.16;6020825;29;96502;-57
2024/02/18 04:30:31;;;;;;;;;6.00;4.00;;;;;10.65;100.00;100363.38;6020374;29;96525;-58
2024/02/18 04:33:36;;;;;;;;;6.50;5.00;;;;;10.64;100.00;100367.13;6019403;29;96469;-57
2024/02/18 04:36:39;;;;;;;;;6.80;5.00;;;;;10.63;100.00;100370.00;6020393;29;96348;-57
2024/02/18 04:39:42;;;;;;;;;5.00;4.50;;;;;10.63;100.00;100370.00;6017978;29;96684;-57
2024/02/18 04:42:46;;;;;;;;;4.50;4.50;;;;;10.59;100.00;100374.94;6019951;29;96999;-57
2024/02/18 04:45:49;;;;;;;;;5.50;5.00;;;;;10.60;100.00;100376.59;6020292;29;96469;-57
2024/02/18 04:48:56;;;;;;;;;6.00;5.00;;;;;10.63;100.00;100373.53;6019383;29;96574;-57
2024/02/18 04:52:00;;;;;;;;;7.00;5.60;;;;;10.64;100.00;100375.22;6002895;29;96800;-57
2024/02/18 04:55:04;;;;;;;;;5.00;5.00;;;;;10.64;100.00;100368.97;6009330;29;97676;-57
2024/02/18 04:58:08;;;;;;;;;6.60;5.00;;;;;10.62;100.00;100377.25;6020021;29;96975;-57
2024/02/18 05:01:11;;;;;;;;;5.80;4.80;;;;;10.62;100.00;100371.84;6001364;28;96577;-57
2024/02/18 05:04:16;;;;;;;;;7.00;6.25;;;;;10.61;100.00;100369.31;6017807;29;97416;-57
2024/02/18 05:07:19;;;;;;;;;5.20;5.00;;;;;10.62;100.00;100376.41;6010308;29;96419;-57
2024/02/18 05:10:22;;;;;;;;;5.00;4.00;;;;;10.63;100.00;100383.47;6018555;29;96722;-56
2024/02/18 05:13:25;;;;;;;;;5.00;4.00;;;;;10.59;100.00;100377.63;6018709;29;96847;-57
2024/02/18 05:16:28;;;;;;;;;5.60;5.60;;;;;10.60;100.00;100378.47;6020063;29;96388;-57
2024/02/18 05:19:33;;;;;;;;;7.40;6.00;;;;;10.57;100.00;100376.97;6019023;29;96594;-57
2024/02/18 05:22:39;;;;;;;;;7.00;7.00;;;;;10.56;100.00;100383.38;6017379;28;97025;-57
2024/02/18 05:25:44;;;;;;;;;6.00;5.00;;;;;10.60;100.00;100391.94;6014745;28;96456;-56
2024/02/18 05:28:47;;;;;;;;;7.20;5.00;;;;;10.57;100.00;100390.44;6017925;29;96596;-57
2024/02/18 05:31:51;;;;;;;;;5.80;5.80;;;;;10.57;100.00;100392.31;6018766;29;96348;-57
2024/02/18 05:34:56;;;;;;;;;4.50;4.50;;;;;10.57;100.00;100387.75;5997948;28;96717;-57
2024/02/18 05:37:59;;;;;;;;;8.40;8.00;;;;;10.57;100.00;100398.53;5996362;29;96568;-57
2024/02/18 05:41:03;;;;;;;;;5.60;5.00;;;;;10.57;100.00;100393.16;5995963;29;96995;-57
2024/02/18 05:44:06;;;;;;;;;6.00;6.00;;;;;10.55;100.00;100395.22;6018758;28;96574;-57
2024/02/18 05:47:09;;;;;;;;;4.00;4.00;;;;;10.57;100.00;100393.16;6019218;29;96950;-57
2024/02/18 05:50:13;;;;;;;;;6.20;6.00;;;;;10.59;100.00;100401.06;6018941;29;96365;-57
2024/02/18 05:53:17;;;;;;;;;6.00;5.00;;;;;10.62;100.00;100387.19;6002111;29;96680;-57
2024/02/18 05:56:20;;;;;;;;;6.50;6.00;;;;;10.60;100.00;100381.16;6018983;29;96580;-57
2024/02/18 05:59:23;;;;;;;;;8.75;8.00;;;;;10.65;100.00;100392.22;6018262;29;96324;-57
2024/02/18 06:02:27;;;;;;;;;6.40;5.40;;;;;10.64;100.00;100385.16;6016635;29;96899;-56
2024/02/18 06:05:32;;;;;;;;;7.60;6.60;;;;;10.68;100.00;100398.09;6019158;29;97111;-57
2024/02/18 06:08:35;;;;;;;;;6.40;6.00;;;;;10.69;100.00;100399.78;6021217;29;96306;-57
2024/02/18 06:11:39;;;;;;;;;6.40;5.60;;;;;10.70;100.00;100401.41;6021441;29;96559;-57
2024/02/18 06:14:42;;;;;;;;;7.40;7.00;;;;;10.71;100.00;100410.34;6020826;29;96632;-56
2024/02/18 06:17:45;;;;;;;;;8.00;7.50;;;;;10.60;100.00;100389.25;6005265;29;96519;-56
2024/02/18 06:20:50;;;;;;;;;8.00;7.25;;;;;10.74;100.00;100410.00;6021477;29;96734;-56
2024/02/18 06:23:56;;;;;;;;;6.00;6.00;;;;;10.72;100.00;100412.88;6022914;29;96461;-56
2024/02/18 06:26:59;;;;;;;;;7.00;7.00;;;;;10.75;100.00;100417.06;6022786;29;96571;-56
2024/02/18 06:30:05;;;;;;;;;6.20;6.00;;;;;10.70;100.00;100408.69;6022081;29;97100;-56
2024/02/18 06:33:08;;;;;;;;;4.80;4.80;;;;;10.77;100.00;100413.16;6004637;29;96504;-57
2024/02/18 06:36:12;;;;;;;;;9.00;9.00;;;;;10.80;100.00;100415.47;6005204;29;96424;-57
2024/02/18 06:39:16;;;;;;;;;7.80;6.20;;;;;10.84;100.00;100416.78;6022174;29;96358;-56
2024/02/18 06:42:19;;;;;;;;;7.60;6.00;;;;;10.90;100.00;100423.28;6022126;29;96195;-57
2024/02/18 06:45:22;;;;;;;;;8.50;8.00;;;;;10.93;100.00;100414.84;6023283;29;96619;-53
2024/02/18 06:48:25;;;;;;;;;8.00;7.60;;;;;10.97;100.00;100426.91;6022421;29;97078;-54
2024/02/18 06:51:30;;;;;;;;;7.20;6.20;;;;;10.89;100.00;100426.19;6023628;29;96875;-53
2024/02/18 06:54:33;;;;;;;;;6.25;5.25;;;;;10.91;100.00;100424.97;6007087;29;96528;-53
2024/02/18 06:57:37;;;;;;;;;6.60;5.00;;;;;10.95;100.00;100428.97;6017533;28;97690;-53
2024/02/18 07:00:40;;;;;;;;;6.50;6.50;;;;;11.00;100.00;100431.09;6020936;29;96794;-55
2024/02/18 07:03:43;;;;;;;;;6.75;6.75;;;;;11.05;100.00;100434.91;6020656;29;96699;-55
2024/02/18 07:06:48;;;;;;;;;4.00;4.00;;;;;11.04;100.00;100435.97;6023145;29;96886;-53
2024/02/18 07:09:52;;;;;;;;;6.00;5.50;;;;;11.11;100.00;100436.88;6023745;29;96361;-53
2024/02/18 07:12:55;;;;;;;;;6.80;5.80;;;;;11.15;100.00;100440.88;6025130;29;96676;-53
2024/02/18 07:15:59;;;;;;;;;6.00;5.00;;;;;11.21;100.00;100439.28;5999907;29;96452;-53
2024/02/18 07:19:02;;;;;;;;;5.00;4.50;;;;;11.23;100.00;100440.78;6017229;28;96638;-53
2024/02/18 07:22:07;;;;;;;;;6.00;5.00;;;;;11.37;100.00;100444.47;6039913;28;96562;-53
2024/02/18 07:25:11;;;;;;;;;5.00;4.00;;;;;11.44;100.00;100445.38;6049008;28;96888;-53
2024/02/18 07:28:15;;;;;;;;;5.20;5.00;;;;;11.51;100.00;100454.41;6048225;28;96852;-53
2024/02/18 07:31:19;;;;;;;;;4.00;4.00;;;;;11.42;100.00;100460.94;6000016;29;96375;-54
2024/02/18 07:34:22;;;;;;;;;6.80;5.00;;;;;11.47;100.00;100465.78;6023694;28;96481;-53
2024/02/18 07:37:27;;;;;;;;;6.00;6.00;;;;;11.49;100.00;100461.84;6023256;29;96366;-52
2024/02/18 07:40:30;;;;;;;;;4.20;4.00;;;;;11.42;100.00;100460.94;6024360;29;96418;-53
2024/02/18 07:43:33;;;;;;;;;6.40;5.00;;;;;11.49;100.00;100464.56;6009236;29;96359;-53
2024/02/18 07:46:37;;;;;;;;;5.00;5.00;;;;;11.49;100.00;100461.00;5999265;29;96601;-53
2024/02/18 07:49:41;;;;;;;;;5.80;5.00;;;;;11.56;100.00;100459.25;6002475;28;96323;-55
2024/02/18 07:52:45;;;;;;;;;5.00;5.00;;;;;11.81;100.00;100462.47;6023240;28;96360;-53
2024/02/18 07:55:49;;;;;;;;;5.20;5.00;;;;;12.13;100.00;100465.50;6023912;29;96373;-53
2024/02/18 07:58:52;;;;;;;;;6.00;6.00;;;;;12.40;100.00;100446.81;6023921;29;96329;-53
2024/02/18 08:01:55;;;;;;;;;7.00;6.00;;;;;12.79;100.00;100467.94;6023623;29;96345;-53
2024/02/18 08:04:58;;;;;;;;;9.00;9.00;;;;;12.90;100.00;100470.91;6022813;29;97387;-55
2024/02/18 08:08:04;;;;;;;;;6.20;5.80;;;;;12.91;100.00;100471.75;6021854;29;96984;-54
2024/02/18 08:11:07;;;;;;;;;7.80;6.20;;;;;12.94;100.00;100465.97;6023285;29;96692;-55
2024/02/18 08:14:11;;;;;;;;;8.40;7.00;;;;;13.02;100.00;100474.75;6021469;29;96401;-54
2024/02/18 08:17:14;;;;;;;;;7.00;6.00;;;;;13.00;100.00;100481.38;6022242;29;96396;-54
2024/02/18 08:20:17;;;;;;;;;5.00;4.00;;;;;13.12;100.00;100466.28;6022400;29;96422;-54
2024/02/18 08:23:21;;;;;;;;;7.00;5.80;;;;;13.25;100.00;100473.66;6022750;29;96352;-54
2024/02/18 08:26:26;;;;;;;;;7.00;6.40;;;;;13.40;100.00;100475.19;6019939;29;96526;-55
2024/02/18 08:29:29;;;;;;;;;7.00;7.00;;;;;13.58;100.00;100476.53;6003954;29;96878;-53
2024/02/18 08:32:32;;;;;;;;;6.00;5.00;;;;;13.76;100.00;100479.50;6010971;29;96370;-54
2024/02/18 08:35:36;;;;;;;;;4.60;4.60;;;;;13.78;100.00;100478.25;6024027;29;96523;-54
2024/02/18 08:38:42;;;;;;;;;5.00;5.00;;;;;13.77;100.00;100467.63;6022407;29;96283;-55
2024/02/18 08:41:46;;;;;;;;;8.00;7.00;;;;;13.94;100.00;100484.34;6007066;29;96677;-53
2024/02/18 08:44:49;;;;;;;;;6.00;5.40;;;;;14.02;98.89;100486.88;6007840;29;96479;-53
2024/02/18 08:47:53;;;;;;;;;5.20;5.00;;;;;14.13;98.83;100486.25;6021769;28;96311;-54
2024/02/18 08:50:57;;;;;;;;;6.40;6.00;;;;;14.31;99.73;100484.66;6023114;29;96287;-54
2024/02/18 08:54:01;;;;;;;;;7.40;6.40;;;;;14.63;98.00;100491.16;6023234;29;96363;-53
2024/02/18 08:57:05;;;;;;;;;7.00;7.00;;;;;14.93;98.03;100477.13;6013418;28;96776;-53
2024/02/18 09:00:09;;;;;;;;;6.25;6.25;;;;;15.13;93.66;100480.66;6014459;29;96767;-54
2024/02/18 09:03:12;;;;;;;;;6.40;6.40;;;;;15.18;91.51;100489.00;6021206;29;96405;-54
2024/02/18 09:06:15;;;;;;;;;6.00;5.60;;;;;15.19;90.53;100493.38;6019595;29;96824;-57
2024/02/18 09:09:20;;;;;;;;;7.20;7.20;;;;;15.19;92.84;100496.09;6019579;29;96388;-58
2024/02/18 09:12:24;;;;;;;;;7.60;7.60;;;;;15.28;93.46;100502.97;6011691;29;97662;-58
2024/02/18 09:15:27;;;;;;;;;5.20;5.20;;;;;15.52;92.32;100488.72;6015281;28;96647;-58
2024/02/18 09:18:30;;;;;;;;;7.00;6.00;;;;;15.92;88.19;100494.81;6018851;29;96447;-58
2024/02/18 09:21:34;;;;;;;;;6.40;6.40;;;;;16.55;82.48;100493.97;6019167;29;96286;-58
2024/02/18 09:24:38;;;;;;;;;8.00;7.00;;;;;16.91;79.42;100493.28;6018913;29;97134;-58
2024/02/18 09:27:42;;;;;;;;;6.00;6.00;;;;;16.96;79.62;100477.91;6018714;29;96338;-58
2024/02/18 09:30:45;;;;;;;;;7.00;6.00;;;;;17.55;76.33;100479.97;6016755;29;96939;-57
2024/02/18 09:33:49;;;;;;;;;7.80;7.60;;;;;17.57;78.43;100477.88;6010163;29;96308;-57
2024/02/18 09:36:52;;;;;;;;;10.00;9.00;;;;;17.69;78.92;100476.06;6019237;29;96293;-57
2024/02/18 09:39:56;;;;;;;;;9.60;7.60;;;;;17.58;75.20;100470.53;6020704;29;96939;-57
2024/02/18 09:43:00;;;;;;;;;7.00;6.00;;;;;17.41;78.88;100478.47;6019291;29;97379;-58
2024/02/18 09:46:03;;;;;;;;;9.00;8.00;;;;;17.21;77.80;100481.41;6029247;28;97668;-58
2024/02/18 09:49:09;;;;;;;;;9.60;9.40;;;;;17.01;75.56;100478.06;6021539;29;96413;-57
2024/02/18 09:52:13;;;;;;;;;9.00;8.00;;;;;16.92;76.58;100476.69;6016383;28;97481;-57
2024/02/18 09:55:19;;;;;;;;;12.00;9.00;;;;;16.93;79.14;100470.19;6026445;28;98244;-57
2024/02/18 09:58:23;;;;;;;;;9.00;9.00;;;;;17.39;74.07;100458.81;6008844;29;96560;-58
2024/02/18 10:01:26;;;;;;;;;9.50;7.25;;;;;17.73;73.91;100449.16;6022377;29;96300;-58
2024/02/18 10:04:30;;;;;;;;;8.00;8.00;;;;;17.66;75.91;100449.25;5994123;29;99059;-57
2024/02/18 10:07:33;;;;;;;;;8.60;8.00;;;;;17.29;75.38;100450.31;6024616;28;97198;-58
2024/02/18 10:10:38;;;;;;;;;10.00;10.00;;;;;16.91;76.55;100452.41;6013339;29;96621;-57
2024/02/18 10:13:42;;;;;;;;;9.40;9.00;;;;;16.62;76.95;100443.03;6013402;29;96812;-57
2024/02/18 10:16:46;;;;;;;;;9.25;8.75;;;;;16.40;78.40;100458.91;6040943;28;96408;-58
2024/02/18 10:19:49;;;;;;;;;8.00;8.00;;;;;16.24;80.96;100457.56;6043058;28;96690;-56
2024/02/18 10:22:52;;;;;;;;;9.00;9.00;;;;;17.83;76.51;100440.44;6046221;28;96407;-58
2024/02/18 10:26:00;;;;;;;;;9.40;9.00;;;;;18.62;73.50;100450.16;6045828;29;97151;-56
2024/02/18 10:29:05;;;;;;;;;9.00;9.00;;;;;18.63;68.45;100449.06;6029567;29;98587;-57
2024/02/18 10:32:08;;;;;;;;;7.00;6.00;;;;;18.12;69.66;100439.59;6050756;28;96452;-58
2024/02/18 10:35:11;;;;;;;;;8.60;8.00;;;;;17.62;70.91;100436.31;6052249;28;96676;-57
2024/02/18 10:38:24;;;;;;;;;9.00;8.00;;;;;17.27;74.70;100423.28;6048876;29;96636;-58
2024/02/18 10:41:34;;;;;;;;;7.00;7.00;;;;;16.84;75.13;100431.53;6046946;29;97385;-57
2024/02/18 10:44:42;;;;;;;;;8.00;7.00;;;;;16.59;76.14;100417.09;6042972;29;96336;-59
2024/02/18 10:47:51;;;;;;;;;9.40;8.20;;;;;16.46;77.97;100412.56;6048728;29;96360;-59
2024/02/18 10:50:54;;;;;;;;;10.50;9.00;;;;;16.57;78.35;100404.72;6028754;29;96788;-58
2024/02/18 10:54:09;;;;;;;;;8.00;7.75;;;;;17.61;73.52;100404.63;6046235;28;96300;-59
2024/02/18 10:57:15;;;;;;;;;10.00;9.00;;;;;17.82;71.68;100400.56;6045039;29;96290;-58
2024/02/18 11:00:19;;;;;;;;;9.00;9.00;;;;;17.70;70.93;100398.63;6046940;29;96994;-57
2024/02/18 11:03:30;;;;;;;;;9.00;8.80;;;;;17.60;71.25;100392.88;6046942;29;96354;-58
2024/02/18 11:06:35;;;;;;;;;11.00;9.60;;;;;17.48;70.38;100393.88;6046410;29;96318;-58
2024/02/18 11:09:41;;;;;;;;;11.60;10.60;;;;;17.34;72.49;100385.03;6047104;29;96342;-59
2024/02/18 11:12:47;;;;;;;;;12.00;10.40;;;;;16.89;73.23;100382.63;6048783;29;96420;-58
2024/02/18 11:15:51;;;;;;;;;9.00;9.00;;;;;16.68;75.10;100384.94;6031549;29;97110;-57
2024/02/18 11:18:56;;;;;;;;;9.00;9.00;;;;;16.50;77.24;100384.91;6046611;29;96812;-59
2024/02/18 11:22:00;;;;;;;;;8.25;8.00;;;;;16.40;75.29;100364.47;6008663;29;97051;-59
2024/02/18 11:25:04;;;;;;;;;11.00;11.00;;;;;16.49;76.34;100373.16;6026608;29;96387;-57
2024/02/18 11:28:08;;;;;;;;;9.00;8.00;;;;;16.64;76.14;100383.75;6021131;29;96459;-57
2024/02/18 11:31:19;;;;;;;;;11.00;9.25;;;;;16.58;73.26;100368.25;6025076;28;96601;-58
2024/02/18 11:34:22;;;;;;;;;8.80;8.20;;;;;16.47;73.08;100369.81;6017306;29;96798;-58
2024/02/18 11:37:31;;;;;;;;;11.00;9.75;;;;;16.39;74.09;100357.34;6018262;29;96486;-57
2024/02/18 11:40:35;;;;;;;;;12.60;11.00;;;;;16.51;72.87;100356.63;6018869;29;96900;-58
2024/02/18 11:43:40;;;;;;;;;10.00;9.80;;;;;16.46;74.88;100346.41;6019762;29;96836;-57
2024/02/18 11:46:44;;;;;;;;;9.60;9.60;;;;;16.78;74.59;100344.41;6019853;29;96443;-57
2024/02/18 11:49:48;;;;;;;;;12.00;11.00;;;;;18.43;72.99;100343.69;6014045;28;97502;-57
2024/02/18 11:52:53;;;;;;;;;10.80;10.80;;;;;21.72;60.33;100329.28;6017700;28;97625;-57
2024/02/18 11:55:56;;;;;;;;;10.00;7.00;;;;;25.07;50.56;100319.09;6021092;28;97389;-58
2024/02/18 11:59:01;;;;;;;;;9.60;9.00;;;;;27.58;40.51;100322.66;6003601;29;97013;-58
2024/02/18 12:02:04;;;;;;;;;11.00;11.00;;;;;29.06;34.89;100310.66;6018097;29;96392;-59
2024/02/18 12:05:10;;;;;;;;;9.00;9.00;;;;;30.98;33.02;100316.22;6007391;29;96541;-59
2024/02/18 12:08:14;;;;;;;;;11.40;11.00;;;;;32.31;32.12;100308.16;6015643;29;96316;-59
2024/02/18 12:11:18;;;;;;;;;12.00;11.00;;;;;33.46;29.88;100305.88;6013999;29;96554;-59
2024/02/18 12:14:22;;;;;;;;;9.80;9.80;;;;;34.05;28.34;100293.72;6019793;29;96791;-60
2024/02/18 12:17:26;;;;;;;;;11.00;10.25;;;;;34.27;29.21;100282.97;6021059;28;96502;-60
2024/02/18 12:20:33;;;;;;;;;9.00;8.00;;;;;33.34;28.67;100294.59;6024990;28;96516;-60
2024/02/18 12:23:40;;;;;;;;;12.00;11.00;;;;;33.65;29.24;100288.63;6009535;29;96335;-59
2024/02/18 12:26:44;;;;;;;;;11.00;10.00;;;;;34.10;29.22;100285.94;6022791;28;96593;-60
2024/02/18 12:29:51;;;;;;;;;11.00;11.00;;;;;34.36;28.44;100269.66;6016319;29;97365;-60
2024/02/18 12:32:54;;;;;;;;;9.00;9.00;;;;;34.29;26.97;100257.41;6017707;29;96954;-60
2024/02/18 12:36:02;;;;;;;;;9.00;9.00;;;;;34.17;27.49;100255.38;6036069;29;96314;-60
2024/02/18 12:39:07;;;;;;;;;9.00;8.00;;;;;33.20;26.47;100249.31;6042448;29;97209;-61
2024/02/18 12:42:10;;;;;;;;;9.40;8.00;;;;;32.24;29.48;100256.47;6049157;28;96617;-59
2024/02/18 12:45:21;;;;;;;;;10.50;10.00;;;;;31.20;30.17;100249.28;6043490;29;98072;-61
2024/02/18 12:48:44;;;;;;;;;11.00;10.00;;;;;29.70;31.67;100241.97;6044755;29;96441;-61
2024/02/18 12:51:49;;;;;;;;;10.00;10.00;;;;;28.20;32.13;100240.16;6047070;29;97115;-60
2024/02/18 12:55:03;;;;;;;;;13.00;11.60;;;;;26.82;35.43;100236.16;6044340;29;96309;-62
2024/02/18 12:58:07;;;;;;;;;10.50;10.50;;;;;25.43;36.06;100237.72;6048711;28;96454;-59
2024/02/18 13:01:12;;;;;;;;;12.40;12.00;;;;;24.06;39.51;100231.09;6042439;28;97502;-60
2024/02/18 13:04:15;;;;;;;;;12.00;10.00;;;;;22.74;43.18;100230.88;6051130;28;96953;-60
2024/02/18 13:07:20;;;;;;;;;9.00;9.00;;;;;21.89;47.47;100228.41;6046398;29;96359;-60
2024/02/18 13:10:23;;;;;;;;;10.00;10.00;;;;;21.35;49.94;100233.16;6047504;29;96361;-60
2024/02/18 13:13:26;;;;;;;;;11.00;10.00;;;;;20.81;52.40;100230.38;6047013;29;96406;-59
2024/02/18 13:16:31;;;;;;;;;13.00;11.00;;;;;20.26;50.94;100225.78;6038856;29;96974;-59
2024/02/18 13:19:36;;;;;;;;;11.00;11.00;;;;;19.85;54.34;100223.50;6046420;29;96306;-60
2024/02/18 13:22:40;;;;;;;;;10.00;10.00;;;;;19.43;57.49;100229.38;6044392;29;96392;-57
2024/02/18 13:25:43;;;;;;;;;13.00;12.00;;;;;19.20;65.32;100218.56;6029441;29;96490;-57
2024/02/18 13:28:47;;;;;;;;;11.80;11.80;;;;;18.96;62.40;100214.28;6039544;29;96388;-58
2024/02/18 13:31:52;;;;;;;;;13.40;12.40;;;;;18.63;60.64;100214.97;6039343;28;96455;-58
2024/02/18 13:34:55;;;;;;;;;13.00;12.40;;;;;18.05;61.57;100212.31;6045186;28;96430;-57
2024/02/18 13:37:59;;;;;;;;;11.75;11.50;;;;;17.73;63.81;100209.13;6049188;28;97595;-56
2024/02/18 13:41:04;;;;;;;;;12.00;12.00;;;;;17.09;65.33;100199.00;6043877;28;96270;-56
2024/02/18 13:44:07;;;;;;;;;13.00;11.00;;;;;16.87;68.22;100215.00;6053078;28;96303;-57
2024/02/18 13:47:13;;;;;;;;;13.00;11.33;;;;;17.08;69.65;100205.50;6043862;28;97297;-56
2024/02/18 13:50:16;;;;;;;;;12.40;11.00;;;;;17.16;68.24;100192.38;6042886;29;97269;-57
2024/02/18 13:53:19;;;;;;;;;12.00;11.00;;;;;17.26;67.08;100183.63;6057220;28;96430;-57
2024/02/18 13:56:22;;;;;;;;;13.40;10.60;;;;;17.39;66.66;100193.50;6046568;28;96279;-59
2024/02/18 13:59:26;;;;;;;;;11.00;11.00;;;;;17.32;66.67;100186.25;6047168;28;96370;-57
2024/02/18 14:02:30;;;;;;;;;10.00;10.00;;;;;17.32;66.62;100183.53;6047752;28;96307;-57
2024/02/18 14:05:33;;;;;;;;;13.00;13.00;;;;;17.08;66.75;100186.44;6044843;28;96263;-59